createdAt,value
2023-02-02T00:02:16.999Z,75.10
2023-02-02T00:04:44.216Z,75.10
2023-02-02T00:07:11.691Z,75.20
2023-02-02T00:09:39.048Z,75.20
2023-02-02T00:12:06.444Z,75.30
2023-02-02T00:14:33.766Z,75.50
2023-02-02T00:17:01.147Z,75.50
2023-02-02T00:19:33.640Z,75.70
2023-02-02T00:22:00.920Z,75.80
2023-02-02T00:24:28.258Z,75.80
2023-02-02T00:26:59.820Z,75.90
2023-02-02T00:29:30.468Z,76.00
2023-02-02T00:31:58.101Z,76.00
2023-02-02T00:34:25.795Z,76.00
2023-02-02T00:36:53.395Z,76.00
2023-02-02T00:39:26.368Z,76.10
2023-02-02T00:41:55.292Z,76.00
2023-02-02T00:44:41.963Z,75.90
2023-02-02T00:47:09.332Z,76.00
2023-02-02T00:49:36.937Z,76.00
2023-02-02T00:52:04.527Z,75.90
2023-02-02T00:54:31.816Z,75.80
2023-02-02T00:56:59.000Z,75.80
2023-02-02T00:59:26.398Z,75.70
2023-02-02T01:01:53.850Z,75.70
2023-02-02T01:04:21.199Z,75.70
2023-02-02T01:06:48.406Z,75.80
2023-02-02T01:09:15.838Z,75.80
2023-02-02T01:11:43.065Z,75.80
2023-02-02T01:14:10.360Z,76.00
2023-02-02T01:16:37.670Z,76.10
2023-02-02T01:19:05.037Z,76.30
2023-02-02T01:21:32.487Z,76.40
2023-02-02T01:23:59.749Z,76.60
2023-02-02T01:26:27.583Z,76.60
2023-02-02T01:28:54.915Z,76.70
2023-02-02T01:31:29.626Z,76.70
2023-02-02T01:33:58.877Z,76.70
2023-02-02T01:36:26.172Z,76.70
2023-02-02T01:38:53.651Z,76.80
2023-02-02T01:41:26.015Z,76.70
2023-02-02T01:44:02.535Z,76.70
2023-02-02T01:46:35.138Z,76.70
2023-02-02T01:49:09.408Z,76.70
2023-02-02T01:51:49.339Z,76.80
2023-02-02T01:54:22.001Z,76.90
2023-02-02T01:56:52.686Z,77.00
2023-02-02T01:59:20.366Z,76.80
2023-02-02T02:01:48.646Z,77.10
2023-02-02T02:04:17.199Z,77.20
2023-02-02T02:06:45.880Z,77.30
2023-02-02T02:09:13.550Z,77.40
2023-02-02T02:11:41.074Z,77.30
2023-02-02T02:14:29.209Z,77.30
2023-02-02T02:17:34.041Z,77.30
2023-02-02T02:20:38.116Z,77.30
2023-02-02T02:24:01.628Z,77.30
2023-02-02T02:26:56.325Z,77.30
2023-02-02T02:30:08.806Z,77.30
2023-02-02T02:33:00.823Z,77.40
2023-02-02T02:35:50.941Z,77.50
2023-02-02T02:38:30.742Z,77.50
2023-02-02T02:41:03.759Z,77.50
2023-02-02T02:43:55.574Z,77.50
2023-02-02T02:46:24.360Z,78.10
2023-02-02T02:48:52.707Z,77.50
2023-02-02T02:51:41.531Z,77.50
2023-02-02T02:54:29.026Z,77.50
2023-02-02T02:57:02.678Z,77.60
2023-02-02T03:00:09.197Z,77.70
2023-02-02T03:02:57.841Z,77.80
2023-02-02T03:05:34.101Z,77.80
2023-02-02T03:08:10.429Z,77.80
2023-02-02T03:10:40.645Z,78.00
2023-02-02T03:13:10.650Z,78.10
2023-02-02T03:15:41.877Z,78.20
2023-02-02T03:18:09.230Z,78.30
2023-02-02T03:20:36.508Z,78.30
2023-02-02T03:23:03.803Z,78.20
2023-02-02T03:25:31.423Z,78.30
2023-02-02T03:27:58.924Z,78.40
2023-02-02T03:30:26.554Z,78.40
2023-02-02T03:32:54.324Z,78.30
2023-02-02T03:35:22.004Z,78.30
2023-02-02T03:37:49.546Z,78.20
2023-02-02T03:40:17.045Z,78.20
2023-02-02T03:42:44.315Z,78.20
2023-02-02T03:45:12.144Z,78.20
2023-02-02T03:47:39.545Z,78.20
2023-02-02T03:50:09.844Z,78.30
2023-02-02T03:52:37.273Z,78.40
2023-02-02T03:55:05.656Z,78.40
2023-02-02T03:57:33.085Z,78.60
2023-02-02T04:00:00.363Z,78.70
2023-02-02T04:02:27.728Z,78.80
2023-02-02T04:04:55.070Z,79.00
2023-02-02T04:07:22.348Z,79.10
2023-02-02T04:09:49.648Z,79.00
2023-02-02T04:12:16.934Z,79.00
2023-02-02T04:14:44.242Z,79.00
2023-02-02T04:17:11.850Z,79.00
2023-02-02T04:19:39.297Z,78.90
2023-02-02T04:22:06.530Z,78.80
2023-02-02T04:24:33.826Z,78.70
2023-02-02T04:27:01.122Z,78.60
2023-02-02T04:29:28.488Z,78.50
2023-02-02T04:31:56.290Z,78.40
2023-02-02T04:34:23.556Z,78.20
2023-02-02T04:36:51.067Z,78.00
2023-02-02T04:39:18.497Z,77.80
2023-02-02T04:41:45.763Z,77.70
2023-02-02T04:44:17.994Z,77.50
2023-02-02T04:46:45.836Z,77.40
2023-02-02T04:49:13.263Z,77.40
2023-02-02T04:51:41.248Z,77.40
2023-02-02T04:54:08.817Z,77.40
2023-02-02T04:56:36.526Z,77.40
2023-02-02T04:59:03.850Z,77.30
2023-02-02T05:01:31.254Z,77.30
2023-02-02T05:03:58.734Z,77.40
2023-02-02T05:06:34.655Z,77.40
2023-02-02T05:09:02.132Z,77.40
2023-02-02T05:11:30.978Z,78.00
2023-02-02T05:13:58.308Z,77.40
2023-02-02T05:16:28.687Z,77.50
2023-02-02T05:18:58.042Z,77.50
2023-02-02T05:21:25.754Z,77.50
2023-02-02T05:23:53.029Z,77.50
2023-02-02T05:26:23.650Z,77.60
2023-02-02T05:28:51.013Z,78.10
2023-02-02T05:31:19.366Z,77.60
2023-02-02T05:33:46.648Z,77.60
2023-02-02T05:36:14.183Z,77.60
2023-02-02T05:38:41.505Z,77.60
2023-02-02T05:41:08.772Z,77.60
2023-02-02T05:43:36.078Z,77.60
2023-02-02T05:46:03.645Z,77.60
2023-02-02T05:48:31.013Z,77.60
2023-02-02T05:51:11.893Z,77.60
2023-02-02T05:53:39.445Z,77.60
2023-02-02T05:56:06.998Z,77.60
2023-02-02T05:58:34.393Z,77.60
2023-02-02T06:01:01.726Z,77.60
2023-02-02T06:03:29.180Z,77.60
2023-02-02T06:05:56.520Z,77.70
2023-02-02T06:08:24.035Z,77.70
2023-02-02T06:10:51.378Z,77.70
2023-02-02T06:13:18.943Z,77.70
2023-02-02T06:15:46.472Z,77.70
2023-02-02T06:18:13.947Z,77.70
2023-02-02T06:20:41.313Z,77.70
2023-02-02T06:23:08.848Z,77.70
2023-02-02T06:25:36.258Z,77.70
2023-02-02T06:28:03.706Z,77.80
2023-02-02T06:30:30.991Z,77.90
2023-02-02T06:33:00.697Z,77.90
2023-02-02T06:35:28.002Z,78.00
2023-02-02T06:37:55.443Z,78.00
2023-02-02T06:40:22.777Z,78.00
2023-02-02T06:42:59.992Z,78.10
2023-02-02T06:45:28.258Z,78.30
2023-02-02T06:48:00.817Z,78.30
2023-02-02T06:50:28.368Z,78.40
2023-02-02T06:52:55.652Z,78.40
2023-02-02T06:55:23.316Z,78.50
2023-02-02T06:58:00.435Z,78.50
2023-02-02T07:00:29.919Z,78.50
2023-02-02T07:02:57.518Z,78.50
2023-02-02T07:05:25.245Z,78.60
2023-02-02T07:07:52.848Z,78.60
2023-02-02T07:11:14.156Z,78.60
2023-02-02T07:13:07.591Z,78.80
2023-02-02T07:15:35.249Z,78.80
2023-02-02T07:18:02.534Z,78.90
2023-02-02T07:20:29.861Z,79.00
2023-02-02T07:22:57.259Z,79.10
2023-02-02T07:25:24.976Z,79.10
2023-02-02T07:27:55.363Z,79.10
2023-02-02T07:30:22.758Z,79.20
2023-02-02T07:32:50.649Z,79.10
2023-02-02T07:35:18.203Z,79.20
2023-02-02T07:37:50.970Z,79.30
2023-02-02T07:40:18.280Z,79.40
2023-02-02T07:42:48.971Z,79.30
2023-02-02T07:45:27.197Z,79.40
2023-02-02T07:48:01.440Z,79.40
2023-02-02T07:50:30.453Z,79.40
2023-02-02T07:53:00.732Z,79.40
2023-02-02T07:55:28.327Z,79.50
2023-02-02T07:57:59.112Z,79.50
2023-02-02T08:00:27.052Z,79.60
2023-02-02T08:02:54.486Z,79.50
2023-02-02T08:05:23.094Z,79.50
2023-02-02T08:07:50.847Z,79.60
2023-02-02T08:10:18.210Z,79.60
2023-02-02T08:12:45.378Z,79.70
2023-02-02T08:15:12.791Z,79.70
2023-02-02T08:17:40.150Z,79.70
2023-02-02T08:20:07.965Z,79.80
2023-02-02T08:22:35.178Z,79.70
2023-02-02T08:25:02.460Z,79.70
2023-02-02T08:27:30.040Z,79.80
2023-02-02T08:29:57.328Z,79.80
2023-02-02T08:32:24.797Z,79.90
2023-02-02T08:34:52.121Z,79.80
2023-02-02T08:37:19.471Z,79.80
2023-02-02T08:39:46.760Z,79.80
2023-02-02T08:42:14.103Z,79.80
2023-02-02T08:45:00.673Z,79.80
2023-02-02T08:47:32.301Z,80.00
2023-02-02T08:49:59.520Z,80.00
2023-02-02T08:52:26.794Z,80.00
2023-02-02T08:54:54.013Z,80.10
2023-02-02T08:57:21.449Z,80.10
2023-02-02T08:59:48.734Z,80.10
2023-02-02T09:02:17.039Z,80.20
2023-02-02T09:04:45.708Z,80.20
2023-02-02T09:07:13.488Z,80.20
2023-02-02T09:09:40.795Z,80.30
2023-02-02T09:12:08.194Z,80.20
2023-02-02T09:14:35.536Z,80.30
2023-02-02T09:17:02.881Z,80.30
2023-02-02T09:19:30.657Z,80.30
2023-02-02T09:21:57.918Z,80.40
2023-02-02T09:24:25.251Z,80.40
2023-02-02T09:26:52.636Z,80.40
2023-02-02T09:29:20.054Z,80.40
2023-02-02T09:31:47.391Z,80.30
2023-02-02T09:34:16.207Z,80.20
2023-02-02T09:36:44.647Z,80.30
2023-02-02T09:39:13.070Z,80.20
2023-02-02T09:41:40.792Z,80.20
2023-02-02T09:44:33.168Z,80.20
2023-02-02T09:47:24.273Z,80.10
2023-02-02T09:50:10.269Z,80.20
2023-02-02T09:52:46.480Z,80.20
2023-02-02T09:55:25.599Z,80.20
2023-02-02T09:58:00.398Z,80.20
2023-02-02T10:00:48.308Z,80.20
2023-02-02T10:03:42.157Z,80.10
2023-02-02T10:06:48.920Z,80.00
2023-02-02T10:09:53.347Z,79.90
2023-02-02T10:12:47.781Z,79.90
2023-02-02T10:15:41.030Z,79.70
2023-02-02T10:18:19.679Z,79.70
2023-02-02T10:21:02.738Z,79.60
2023-02-02T10:23:41.879Z,79.50
2023-02-02T10:26:35.468Z,79.30
2023-02-02T10:29:22.192Z,79.30
2023-02-02T10:32:23.354Z,79.10
2023-02-02T10:35:17.908Z,79.50
2023-02-02T10:38:01.949Z,78.90
2023-02-02T10:40:44.471Z,78.80
2023-02-02T10:43:33.284Z,78.80
2023-02-02T10:46:04.713Z,78.70
2023-02-02T10:48:37.708Z,78.70
2023-02-02T10:51:26.681Z,78.70
2023-02-02T10:53:57.271Z,78.70
2023-02-02T10:56:40.665Z,78.60
2023-02-02T10:59:15.776Z,78.40
2023-02-02T11:01:43.179Z,78.40
2023-02-02T11:04:29.607Z,78.30
2023-02-02T11:06:57.444Z,78.20
2023-02-02T11:09:30.626Z,78.20
2023-02-02T11:12:22.750Z,78.10
2023-02-02T11:15:06.786Z,78.20
2023-02-02T11:17:35.632Z,78.10
2023-02-02T11:20:24.433Z,78.20
2023-02-02T11:23:01.719Z,78.00
2023-02-02T11:25:35.295Z,77.80
2023-02-02T11:28:19.925Z,77.80
2023-02-02T11:30:52.484Z,77.70
2023-02-02T11:33:21.689Z,77.70
2023-02-02T11:36:22.289Z,77.90
2023-02-02T11:38:49.669Z,77.80
2023-02-02T11:41:17.313Z,77.80
2023-02-02T11:43:53.434Z,77.80
2023-02-02T11:46:24.833Z,77.80
2023-02-02T11:49:10.255Z,77.90
2023-02-02T11:51:37.564Z,78.00
2023-02-02T11:54:29.424Z,78.00
2023-02-02T11:57:03.153Z,78.10
2023-02-02T11:59:37.203Z,78.10
2023-02-02T12:02:20.059Z,78.20
2023-02-02T12:04:48.331Z,78.10
2023-02-02T12:07:34.327Z,78.20
2023-02-02T12:10:16.082Z,78.20
2023-02-02T12:12:55.854Z,78.20
2023-02-02T12:15:41.687Z,78.20
2023-02-02T12:18:47.033Z,78.10
2023-02-02T12:21:31.388Z,78.00
2023-02-02T12:24:17.484Z,78.00
2023-02-02T12:26:55.126Z,78.10
2023-02-02T12:29:49.219Z,78.10
2023-02-02T12:32:42.936Z,78.10
2023-02-02T12:35:29.611Z,78.10
2023-02-02T12:38:11.260Z,78.10
2023-02-02T12:40:47.789Z,78.00
2023-02-02T12:43:36.284Z,78.00
2023-02-02T12:46:22.667Z,77.90
2023-02-02T12:49:12.989Z,78.00
2023-02-02T12:51:46.275Z,78.10
2023-02-02T12:54:47.545Z,78.20
2023-02-02T12:57:42.581Z,78.10
2023-02-02T13:00:26.617Z,77.90
2023-02-02T13:03:06.394Z,77.80
2023-02-02T13:05:40.893Z,77.80
2023-02-02T13:08:17.016Z,77.70
2023-02-02T13:10:53.248Z,77.50
2023-02-02T13:13:29.438Z,77.50
2023-02-02T13:16:10.903Z,77.40
2023-02-02T13:19:07.838Z,77.20
2023-02-02T13:21:38.323Z,77.00
2023-02-02T13:24:08.646Z,76.80
2023-02-02T13:26:40.632Z,76.60
2023-02-02T13:29:10.818Z,76.60
2023-02-02T13:32:03.037Z,76.60
2023-02-02T13:34:48.984Z,76.50
2023-02-02T13:37:37.376Z,76.60
2023-02-02T13:40:32.207Z,76.60
2023-02-02T13:43:06.546Z,76.60
2023-02-02T13:46:11.994Z,76.60
2023-02-02T13:49:00.895Z,76.70
2023-02-02T13:52:05.677Z,76.80
2023-02-02T13:55:18.578Z,76.70
2023-02-02T13:58:04.674Z,76.70
2023-02-02T14:00:38.700Z,76.70
2023-02-02T14:03:29.151Z,76.80
2023-02-02T14:06:08.334Z,76.90
2023-02-02T14:08:37.049Z,77.00
2023-02-02T14:11:07.260Z,77.00
2023-02-02T14:14:09.234Z,77.10
2023-02-02T14:16:36.475Z,77.10
2023-02-02T14:19:26.125Z,77.20
2023-02-02T14:22:14.177Z,77.20
2023-02-02T14:24:46.353Z,77.30
2023-02-02T14:27:13.674Z,77.30
2023-02-02T14:29:47.195Z,77.40
2023-02-02T14:32:29.577Z,77.40
2023-02-02T14:35:25.957Z,77.60
2023-02-02T14:38:09.640Z,77.60
2023-02-02T14:40:49.749Z,77.70
2023-02-02T14:43:46.343Z,77.90
2023-02-02T14:46:13.672Z,78.00
2023-02-02T14:48:49.873Z,78.20
2023-02-02T14:51:20.311Z,78.20
2023-02-02T14:53:56.240Z,78.30
2023-02-02T14:56:50.874Z,78.40
2023-02-02T14:59:22.730Z,78.40
2023-02-02T15:02:13.932Z,78.60
2023-02-02T15:04:41.564Z,78.60
2023-02-02T15:07:23.997Z,78.60
2023-02-02T15:09:56.784Z,78.70
2023-02-02T15:12:40.973Z,78.70
2023-02-02T15:15:17.880Z,78.80
2023-02-02T15:17:54.136Z,78.90
2023-02-02T15:20:27.256Z,78.90
2023-02-02T15:23:03.238Z,79.00
2023-02-02T15:25:44.752Z,79.10
2023-02-02T15:28:25.544Z,79.10
2023-02-02T15:31:07.776Z,79.10
2023-02-02T15:33:45.195Z,79.10
2023-02-02T15:36:32.207Z,79.30
2023-02-02T15:39:04.277Z,79.40
2023-02-02T15:41:38.165Z,79.40
2023-02-02T15:44:27.059Z,79.50
2023-02-02T15:46:57.986Z,79.60
2023-02-02T15:49:34.673Z,79.60
2023-02-02T15:52:12.767Z,79.60
2023-02-02T15:54:50.892Z,79.70
2023-02-02T15:57:37.469Z,79.90
2023-02-02T16:00:28.320Z,80.10
2023-02-02T16:03:04.662Z,80.20
2023-02-02T16:05:31.916Z,80.30
2023-02-02T16:08:05.948Z,80.30
2023-02-02T16:10:35.369Z,80.40
2023-02-02T16:13:03.650Z,80.60
2023-02-02T16:15:32.220Z,80.80
2023-02-02T16:18:01.408Z,80.90
2023-02-02T16:20:33.274Z,80.90
2023-02-02T16:23:05.006Z,80.90
2023-02-02T16:25:37.324Z,81.00
2023-02-02T16:28:05.026Z,81.10
2023-02-02T16:30:38.331Z,81.20
2023-02-02T16:33:34.643Z,81.30
2023-02-02T16:36:06.076Z,81.60
2023-02-02T16:38:39.035Z,81.50
2023-02-02T16:41:12.049Z,81.40
2023-02-02T16:43:41.469Z,81.50
2023-02-02T16:46:15.325Z,81.40
2023-02-02T16:49:00.701Z,81.70
2023-02-02T16:51:29.332Z,81.70
2023-02-02T16:54:08.166Z,81.90
2023-02-02T16:56:42.274Z,82.00
2023-02-02T16:59:22.289Z,82.10
2023-02-02T17:02:04.018Z,82.20
2023-02-02T17:04:33.365Z,82.00
2023-02-02T17:07:11.821Z,82.10
2023-02-02T17:09:41.272Z,82.20
2023-02-02T17:12:34.796Z,82.00
2023-02-02T17:15:17.896Z,82.30
2023-02-02T17:17:49.604Z,82.20
2023-02-02T17:20:18.236Z,82.30
2023-02-02T17:22:52.263Z,82.30
2023-02-02T17:25:35.040Z,82.30
2023-02-02T17:28:03.990Z,82.30
2023-02-02T17:30:31.706Z,82.20
2023-02-02T17:32:59.028Z,82.40
2023-02-02T17:35:31.018Z,82.50
2023-02-02T17:38:05.889Z,82.50
2023-02-02T17:40:33.838Z,82.50
2023-02-02T17:43:02.379Z,82.80
2023-02-02T17:45:34.572Z,82.60
2023-02-02T17:48:02.793Z,82.70
2023-02-02T17:50:32.160Z,82.70
2023-02-02T17:52:59.632Z,82.70
2023-02-02T17:55:48.034Z,82.80
2023-02-02T17:58:17.671Z,83.00
2023-02-02T18:00:50.893Z,82.80
2023-02-02T18:03:23.747Z,82.80
2023-02-02T18:05:51.243Z,82.80
2023-02-02T18:08:19.203Z,82.60
2023-02-02T18:10:49.136Z,82.90
2023-02-02T18:13:19.554Z,83.00
2023-02-02T18:15:47.646Z,83.00
2023-02-02T18:18:15.142Z,83.00
2023-02-02T18:20:47.507Z,82.90
2023-02-02T18:23:15.790Z,83.10
2023-02-02T18:25:45.971Z,82.90
2023-02-02T18:28:17.988Z,82.90
2023-02-02T18:30:46.985Z,82.80
2023-02-02T18:33:19.044Z,82.70
2023-02-02T18:35:47.930Z,83.00
2023-02-02T18:38:15.761Z,82.90
2023-02-02T18:40:43.199Z,83.10
2023-02-02T18:43:10.762Z,83.00
2023-02-02T18:45:38.742Z,82.90
2023-02-02T18:48:06.181Z,83.10
2023-02-02T18:50:33.491Z,83.00
2023-02-02T18:53:00.761Z,83.00
2023-02-02T18:55:28.449Z,83.00
2023-02-02T18:57:56.113Z,83.00
2023-02-02T19:00:23.562Z,83.00
2023-02-02T19:02:50.866Z,83.10
2023-02-02T19:05:36.644Z,83.00
2023-02-02T19:08:05.957Z,83.00
2023-02-02T19:10:35.286Z,82.90
2023-02-02T19:13:20.610Z,83.00
2023-02-02T19:15:49.938Z,83.60
2023-02-02T19:18:22.685Z,83.10
2023-02-02T19:20:50.483Z,83.00
2023-02-02T19:23:20.642Z,82.90
2023-02-02T19:25:51.696Z,83.00
2023-02-02T19:28:30.875Z,83.10
2023-02-02T19:31:00.859Z,83.20
2023-02-02T19:33:41.799Z,83.30
2023-02-02T19:36:18.856Z,83.20
2023-02-02T19:38:47.121Z,83.20
2023-02-02T19:41:25.435Z,83.20
2023-02-02T19:44:01.573Z,83.10
2023-02-02T19:46:30.943Z,83.10
2023-02-02T19:49:24.877Z,83.30
2023-02-02T19:51:55.218Z,83.30
2023-02-02T19:54:29.675Z,83.30
2023-02-02T19:56:59.831Z,83.20
2023-02-02T19:59:32.751Z,83.30
2023-02-02T20:02:21.251Z,83.20
2023-02-02T20:05:00.466Z,83.10
2023-02-02T20:07:30.088Z,83.10
2023-02-02T20:10:12.976Z,83.10
2023-02-02T20:12:40.106Z,83.10
2023-02-02T20:15:33.818Z,83.00
2023-02-02T20:18:05.765Z,83.00
2023-02-02T20:20:39.992Z,82.90
2023-02-02T20:23:28.056Z,82.90
2023-02-02T20:25:55.454Z,82.70
2023-02-02T20:28:41.782Z,82.70
2023-02-02T20:31:15.460Z,82.60
2023-02-02T20:33:46.378Z,82.70
2023-02-02T20:36:29.665Z,82.60
2023-02-02T20:39:01.519Z,82.50
2023-02-02T20:41:30.106Z,82.40
2023-02-02T20:43:57.555Z,82.40
2023-02-02T20:46:40.552Z,82.40
2023-02-02T20:49:08.537Z,82.30
2023-02-02T20:51:35.899Z,82.20
2023-02-02T20:54:03.305Z,81.80
2023-02-02T20:56:30.895Z,81.90
2023-02-02T20:59:00.614Z,81.90
2023-02-02T21:01:28.988Z,81.90
2023-02-02T21:03:57.615Z,81.70
2023-02-02T21:06:28.380Z,81.60
2023-02-02T21:08:56.333Z,81.60
2023-02-02T21:11:23.626Z,81.50
2023-02-02T21:13:51.022Z,81.50
2023-02-02T21:16:18.318Z,81.90
2023-02-02T21:18:47.416Z,81.40
2023-02-02T21:21:16.520Z,81.40
2023-02-02T21:23:47.288Z,81.30
2023-02-02T21:28:51.958Z,81.00
2023-02-02T21:31:20.415Z,80.90
2023-02-02T21:33:50.046Z,81.00
2023-02-02T21:36:36.826Z,80.90
2023-02-02T21:39:30.592Z,80.70
2023-02-02T21:42:13.230Z,80.80
2023-02-02T21:44:43.864Z,80.80
2023-02-02T21:47:25.806Z,80.70
2023-02-02T21:49:55.697Z,80.70
2023-02-02T21:52:23.164Z,80.40
2023-02-02T21:54:50.593Z,80.20
2023-02-02T21:57:21.008Z,80.20
2023-02-02T21:59:56.573Z,80.50
2023-02-02T22:02:44.674Z,80.20
2023-02-02T22:05:33.453Z,80.20
2023-02-02T22:08:07.662Z,80.10
2023-02-02T22:10:42.445Z,80.00
2023-02-02T22:13:25.014Z,80.50
2023-02-02T22:15:53.445Z,80.10
2023-02-02T22:18:23.566Z,80.00
2023-02-02T22:20:52.252Z,80.00
2023-02-02T22:23:22.636Z,80.00
2023-02-02T22:25:53.219Z,79.80
2023-02-02T22:28:28.825Z,79.80
2023-02-02T22:30:58.658Z,79.70
2023-02-02T22:33:26.961Z,79.80
2023-02-02T22:35:54.467Z,79.70
2023-02-02T22:38:25.218Z,79.50
2023-02-02T22:40:53.338Z,79.30
2023-02-02T22:43:21.796Z,79.90
2023-02-02T22:45:49.387Z,79.00
2023-02-02T22:48:17.358Z,79.30
2023-02-02T22:50:44.634Z,79.40
2023-02-02T22:53:14.026Z,79.30
2023-02-02T22:55:41.532Z,79.30
2023-02-02T22:58:08.997Z,79.30
2023-02-02T23:00:37.829Z,79.20
2023-02-02T23:03:05.240Z,79.20
2023-02-02T23:05:32.561Z,79.20
2023-02-02T23:07:59.885Z,79.20
2023-02-02T23:10:29.766Z,79.20
2023-02-02T23:12:59.241Z,79.30
2023-02-02T23:15:26.719Z,79.20
2023-02-02T23:17:54.543Z,79.10
2023-02-02T23:20:21.995Z,79.20
2023-02-02T23:22:49.645Z,78.90
2023-02-02T23:25:18.819Z,79.10
2023-02-02T23:27:46.331Z,78.80
2023-02-02T23:30:14.887Z,79.00
2023-02-02T23:32:42.497Z,78.80
2023-02-02T23:35:11.074Z,78.80
2023-02-02T23:37:38.570Z,78.80
2023-02-02T23:40:06.478Z,78.80
2023-02-02T23:42:34.074Z,78.80
2023-02-02T23:45:01.373Z,78.70
2023-02-02T23:47:28.778Z,78.70
2023-02-02T23:49:56.675Z,78.60
2023-02-02T23:52:24.135Z,78.70
2023-02-02T23:54:53.031Z,78.70
2023-02-02T23:57:20.935Z,78.70
2023-02-02T23:59:48.230Z,78.60
